Time;durP1;ratioP1;P1;durP2;ratioP2;P2;SDS_P1;SDS_P2;PMS_P1;PMS_P2;Temp;Humidity;BMP_temperature;BMP_pressure;BME280_temperature;BME280_humidity;BME280_pressure;Samples;Min_cycle;Max_cycle;Signal;HPM_P1;HPM_P2
2022/05/22 00:00:24;;;;;;;8.50;4.40;;;11.50;99.90;;;;;;4945741;28;38301;-76
2022/05/22 00:02:50;;;;;;;16.48;5.15;;;11.50;99.90;;;;;;4965806;28;36510;-76
2022/05/22 00:05:20;;;;;;;9.55;5.03;;;11.50;99.90;;;;;;4945413;28;37645;-75
2022/05/22 00:07:46;;;;;;;13.63;5.20;;;11.50;99.90;;;;;;4943644;28;39226;-75
2022/05/22 00:10:13;;;;;;;12.70;6.07;;;11.50;99.90;;;;;;4952739;28;37636;-75
2022/05/22 00:12:41;;;;;;;12.45;5.00;;;11.50;99.90;;;;;;4942705;28;37101;-75
2022/05/22 00:15:09;;;;;;;10.23;5.53;;;11.40;99.90;;;;;;4930348;28;38643;-75
2022/05/22 00:17:35;;;;;;;12.00;4.88;;;11.40;99.90;;;;;;4958945;28;39057;-75
2022/05/22 00:20:04;;;;;;;8.57;4.65;;;11.40;99.90;;;;;;4943281;28;38122;-75
2022/05/22 00:22:31;;;;;;;7.85;4.45;;;11.30;99.90;;;;;;4954189;28;46640;-75
2022/05/22 00:24:57;;;;;;;11.55;5.00;;;11.30;99.90;;;;;;4956039;28;38213;-75
2022/05/22 00:27:23;;;;;;;11.27;4.57;;;11.20;99.90;;;;;;4938134;28;38937;-75
2022/05/22 00:29:49;;;;;;;13.07;4.40;;;11.20;99.90;;;;;;4938273;28;37671;-77
2022/05/22 00:32:16;;;;;;;13.40;4.70;;;11.20;99.90;;;;;;4940873;28;37003;-75
2022/05/22 00:34:42;;;;;;;9.80;4.72;;;11.10;99.90;;;;;;4938076;28;40618;-75
2022/05/22 00:37:08;;;;;;;12.57;5.55;;;11.20;99.90;;;;;;4946085;28;39053;-75
2022/05/22 00:39:35;;;;;;;10.98;4.80;;;11.10;99.90;;;;;;4942138;28;39205;-74
2022/05/22 00:42:11;;;;;;;7.80;4.57;;;11.10;99.90;;;;;;4958482;28;35940;-75
2022/05/22 00:44:37;;;;;;;10.40;5.05;;;11.10;99.90;;;;;;4943885;28;39428;-76
2022/05/22 00:47:03;;;;;;;8.57;4.32;;;11.10;99.90;;;;;;4953513;28;37377;-75
2022/05/22 00:49:31;;;;;;;9.68;4.78;;;11.10;99.90;;;;;;4960328;28;37989;-75
2022/05/22 00:52:11;;;;;;;8.50;4.82;;;11.00;99.90;;;;;;4946496;28;36079;-75
2022/05/22 00:54:47;;;;;;;10.32;4.53;;;11.00;99.90;;;;;;4955310;28;48687;-76
2022/05/22 00:57:23;;;;;;;14.43;5.07;;;11.00;99.90;;;;;;4936408;28;38916;-76
2022/05/22 01:00:01;;;;;;;10.48;4.30;;;11.00;99.90;;;;;;4941993;28;37815;-75
2022/05/22 01:02:28;;;;;;;9.10;4.38;;;11.00;99.90;;;;;;4946108;28;47678;-75
2022/05/22 01:04:54;;;;;;;7.63;4.32;;;10.90;99.90;;;;;;4945683;28;39027;-75
2022/05/22 01:07:20;;;;;;;8.50;4.50;;;10.80;99.90;;;;;;4941428;28;38941;-76
2022/05/22 01:09:48;;;;;;;11.05;5.28;;;10.80;99.90;;;;;;4920670;28;34931;-76
2022/05/22 01:12:18;;;;;;;11.63;4.90;;;10.80;99.90;;;;;;4953644;28;37212;-76
2022/05/22 01:14:47;;;;;;;8.68;4.47;;;10.80;99.90;;;;;;4943263;28;39025;-76
2022/05/22 01:17:14;;;;;;;5.97;4.47;;;10.80;99.90;;;;;;4945693;28;38950;-76
2022/05/22 01:19:40;;;;;;;11.45;5.20;;;10.80;99.90;;;;;;4942914;28;39422;-76
2022/05/22 01:22:14;;;;;;;12.68;5.88;;;10.80;99.90;;;;;;4934095;28;39082;-77
2022/05/22 01:24:41;;;;;;;9.63;4.75;;;10.70;99.90;;;;;;4960886;28;37778;-76
2022/05/22 01:27:11;;;;;;;8.55;4.03;;;10.70;99.90;;;;;;4939874;28;39453;-76
2022/05/22 01:29:37;;;;;;;7.90;4.03;;;10.60;99.90;;;;;;4936578;28;37816;-76
2022/05/22 01:32:04;;;;;;;9.27;4.10;;;10.60;99.90;;;;;;4953485;28;36218;-75
2022/05/22 01:34:30;;;;;;;8.18;3.90;;;10.50;99.90;;;;;;4942720;28;38557;-76
2022/05/22 01:36:57;;;;;;;9.13;4.63;;;10.50;99.90;;;;;;4942872;28;38615;-76
2022/05/22 01:39:23;;;;;;;10.55;4.30;;;10.50;99.90;;;;;;4944938;28;38520;-75
2022/05/22 01:41:49;;;;;;;7.32;3.55;;;10.50;99.90;;;;;;4945423;28;37736;-76
2022/05/22 01:44:15;;;;;;;10.13;4.07;;;10.50;99.90;;;;;;4960974;28;38776;-75
2022/05/22 01:46:42;;;;;;;7.35;3.80;;;10.40;99.90;;;;;;4966023;28;38821;-76
2022/05/22 01:49:08;;;;;;;8.65;3.85;;;10.40;99.90;;;;;;4945591;28;37602;-76
2022/05/22 01:51:37;;;;;;;9.60;5.00;;;10.40;99.90;;;;;;4959926;28;36338;-76
2022/05/22 01:54:04;;;;;;;10.50;4.82;;;10.40;99.90;;;;;;4941714;28;39158;-76
2022/05/22 01:56:33;;;;;;;8.50;4.63;;;10.40;99.90;;;;;;4941614;28;39138;-76
2022/05/22 01:58:59;;;;;;;11.98;4.30;;;10.40;99.90;;;;;;4941162;28;39150;-76
2022/05/22 02:01:26;;;;;;;11.68;3.80;;;10.30;99.90;;;;;;4960339;28;36443;-76
2022/05/22 02:03:52;;;;;;;8.52;4.65;;;10.30;99.90;;;;;;4946641;28;38708;-76
2022/05/22 02:06:18;;;;;;;8.93;4.65;;;10.20;99.90;;;;;;4961578;28;37959;-76
2022/05/22 02:08:44;;;;;;;8.02;4.47;;;10.30;99.90;;;;;;4959873;28;38331;-76
2022/05/22 02:11:10;;;;;;;9.63;4.82;;;10.30;99.90;;;;;;4943547;28;37113;-76
2022/05/22 02:13:39;;;;;;;7.78;4.10;;;10.30;99.90;;;;;;4943715;28;38782;-76
2022/05/22 02:16:06;;;;;;;7.88;4.25;;;10.30;99.90;;;;;;4947731;28;39099;-76
2022/05/22 02:18:32;;;;;;;9.77;4.28;;;10.30;99.90;;;;;;4953373;28;37636;-76
2022/05/22 02:20:59;;;;;;;11.38;4.28;;;10.20;99.90;;;;;;4951536;28;37242;-76
2022/05/22 02:23:25;;;;;;;9.10;4.85;;;10.20;99.90;;;;;;4940283;28;39026;-76
2022/05/22 02:25:54;;;;;;;8.60;4.38;;;10.20;99.90;;;;;;4938871;28;38719;-76
2022/05/22 02:28:22;;;;;;;7.70;4.47;;;10.20;99.90;;;;;;4955677;28;37950;-76
2022/05/22 02:30:52;;;;;;;10.70;5.47;;;10.20;99.90;;;;;;4942983;28;37959;-76
2022/05/22 02:33:19;;;;;;;9.02;4.70;;;10.20;99.90;;;;;;4943863;28;38735;-76
2022/05/22 02:35:45;;;;;;;8.13;4.50;;;10.10;99.90;;;;;;4947560;28;38701;-76
2022/05/22 02:38:11;;;;;;;12.43;4.93;;;10.10;99.90;;;;;;4936921;28;37941;-76
2022/05/22 02:40:41;;;;;;;9.20;4.57;;;10.00;99.90;;;;;;4955829;28;36262;-76
2022/05/22 02:43:08;;;;;;;13.27;4.80;;;10.00;99.90;;;;;;4954723;28;39035;-76
2022/05/22 02:45:36;;;;;;;10.63;4.97;;;10.00;99.90;;;;;;4941198;28;39409;-76
2022/05/22 02:48:03;;;;;;;13.60;5.03;;;10.00;99.90;;;;;;4942979;28;37522;-76
2022/05/22 02:50:30;;;;;;;10.80;5.00;;;10.00;99.90;;;;;;4940465;28;36699;-76
2022/05/22 02:52:57;;;;;;;7.80;4.93;;;10.00;99.90;;;;;;4945516;28;38665;-76
2022/05/22 02:55:24;;;;;;;11.13;5.30;;;10.10;99.90;;;;;;4948263;28;39026;-76
2022/05/22 02:57:50;;;;;;;13.17;5.10;;;10.10;99.90;;;;;;4943272;28;38321;-76
2022/05/22 03:00:23;;;;;;;8.75;4.22;;;10.00;99.90;;;;;;4940275;28;37655;-76
2022/05/22 03:02:50;;;;;;;8.63;4.75;;;10.00;99.90;;;;;;4944828;28;39003;-76
2022/05/22 03:05:16;;;;;;;10.02;5.03;;;10.00;99.90;;;;;;4944870;28;38973;-76
2022/05/22 03:07:43;;;;;;;12.10;4.15;;;10.00;99.90;;;;;;4936718;28;38434;-76
2022/05/22 03:10:13;;;;;;;10.73;4.60;;;10.00;99.90;;;;;;4937152;28;36146;-76
2022/05/22 03:12:41;;;;;;;8.57;4.90;;;10.00;99.90;;;;;;4940255;28;37790;-77
2022/05/22 03:15:10;;;;;;;9.88;4.25;;;10.00;99.90;;;;;;4943052;28;37884;-76
2022/05/22 03:17:36;;;;;;;11.65;5.40;;;9.90;99.90;;;;;;4944693;28;38295;-76
2022/05/22 03:20:03;;;;;;;9.35;4.70;;;9.90;99.90;;;;;;4960793;28;37357;-77
2022/05/22 03:22:29;;;;;;;8.57;5.07;;;9.90;99.90;;;;;;4954193;28;39028;-76
2022/05/22 03:24:55;;;;;;;9.40;4.68;;;9.90;99.90;;;;;;4948039;28;39696;-76
2022/05/22 03:27:21;;;;;;;9.95;4.55;;;9.80;99.90;;;;;;4941422;28;37523;-76
2022/05/22 03:29:48;;;;;;;10.32;4.90;;;9.80;99.90;;;;;;4947446;28;37254;-76
2022/05/22 03:32:15;;;;;;;12.27;5.93;;;9.80;99.90;;;;;;4946949;28;38095;-76
2022/05/22 03:34:41;;;;;;;10.68;4.85;;;9.80;99.90;;;;;;4934926;28;38974;-76
2022/05/22 03:37:09;;;;;;;9.27;4.90;;;9.80;99.90;;;;;;4926495;28;37887;-75
2022/05/22 03:39:35;;;;;;;10.37;4.03;;;9.80;99.90;;;;;;4933876;28;37951;-75
2022/05/22 03:42:03;;;;;;;10.45;4.60;;;9.80;99.90;;;;;;4931967;28;37705;-75
2022/05/22 03:44:29;;;;;;;11.37;4.90;;;9.80;99.90;;;;;;4943498;28;47631;-75
2022/05/22 03:46:55;;;;;;;9.33;4.27;;;9.70;99.90;;;;;;4961215;28;37199;-75
2022/05/22 03:49:22;;;;;;;7.63;4.53;;;9.70;99.90;;;;;;4956790;28;36267;-75
2022/05/22 03:51:48;;;;;;;7.07;4.57;;;9.70;99.90;;;;;;4947020;28;39847;-76
2022/05/22 03:54:14;;;;;;;11.80;4.90;;;9.70;99.90;;;;;;4944381;28;39564;-76
2022/05/22 03:56:41;;;;;;;11.40;4.07;;;9.80;99.90;;;;;;4945447;28;37050;-76
2022/05/22 03:59:08;;;;;;;6.90;4.10;;;9.80;99.90;;;;;;4943718;28;36320;-76
2022/05/22 04:01:35;;;;;;;10.98;5.35;;;9.80;99.90;;;;;;4952442;28;38577;-75
2022/05/22 04:04:01;;;;;;;12.02;5.50;;;9.70;99.90;;;;;;4948857;28;37808;-76
2022/05/22 04:06:27;;;;;;;11.05;5.07;;;9.70;99.90;;;;;;4950735;28;37794;-76
2022/05/22 04:08:53;;;;;;;7.05;4.45;;;9.80;99.90;;;;;;4949972;28;36156;-75
2022/05/22 04:11:20;;;;;;;9.27;4.20;;;9.80;99.90;;;;;;4928933;28;37722;-76
2022/05/22 04:13:47;;;;;;;7.25;4.63;;;9.80;99.90;;;;;;4951229;28;38320;-75
2022/05/22 04:16:13;;;;;;;10.60;5.28;;;9.80;99.90;;;;;;4933118;28;37429;-76
2022/05/22 04:18:39;;;;;;;9.02;5.15;;;9.80;99.90;;;;;;4944999;28;36026;-76
2022/05/22 04:21:06;;;;;;;10.63;5.43;;;9.90;99.90;;;;;;4929100;28;38555;-75
2022/05/22 04:26:17;;;;;;;9.25;5.10;;;10.00;99.90;;;;;;4932656;28;37398;-76
2022/05/22 04:28:43;;;;;;;12.65;5.22;;;10.10;99.90;;;;;;4961364;28;36414;-76
2022/05/22 04:31:09;;;;;;;7.40;4.18;;;10.10;99.90;;;;;;4950027;28;39226;-76
2022/05/22 04:33:36;;;;;;;9.48;4.57;;;10.10;99.90;;;;;;4947838;28;39648;-76
2022/05/22 04:36:02;;;;;;;8.75;4.75;;;10.20;99.90;;;;;;4953378;28;39023;-76
2022/05/22 04:38:28;;;;;;;12.48;5.45;;;10.20;99.90;;;;;;4948324;28;35957;-76
2022/05/22 04:40:55;;;;;;;11.75;5.63;;;10.40;99.90;;;;;;4949562;28;39074;-76
2022/05/22 04:43:22;;;;;;;12.40;5.30;;;10.40;99.90;;;;;;4949076;28;39192;-77
2022/05/22 04:45:50;;;;;;;8.93;4.82;;;10.40;99.90;;;;;;4944069;28;37751;-76
2022/05/22 04:48:21;;;;;;;13.82;5.53;;;10.50;99.90;;;;;;4953314;28;37204;-76
2022/05/22 04:50:48;;;;;;;13.73;5.85;;;10.60;99.90;;;;;;4955393;28;39425;-76
2022/05/22 04:53:16;;;;;;;13.10;5.38;;;10.60;99.90;;;;;;4942486;28;39223;-76
2022/05/22 04:55:42;;;;;;;13.82;6.20;;;10.70;99.90;;;;;;4951908;28;37691;-76
2022/05/22 04:58:08;;;;;;;8.95;4.93;;;10.90;99.90;;;;;;4958400;28;37042;-76
2022/05/22 05:00:35;;;;;;;10.05;6.00;;;11.00;99.90;;;;;;4954533;28;37836;-76
2022/05/22 05:03:01;;;;;;;11.27;5.82;;;11.10;99.90;;;;;;4955846;28;37897;-76
2022/05/22 05:05:28;;;;;;;13.65;6.85;;;11.30;99.90;;;;;;4942436;28;39310;-76
2022/05/22 05:07:54;;;;;;;10.00;5.35;;;11.40;99.90;;;;;;4962413;28;36910;-75
2022/05/22 05:10:21;;;;;;;10.38;4.90;;;11.50;99.90;;;;;;4960689;28;37577;-76
2022/05/22 05:12:48;;;;;;;9.65;5.68;;;11.60;99.90;;;;;;4942928;28;38933;-76
2022/05/22 05:15:18;;;;;;;10.45;5.63;;;11.70;99.90;;;;;;4957197;28;37474;-76
2022/05/22 05:17:45;;;;;;;15.80;6.13;;;11.90;99.90;;;;;;4958345;28;36431;-74
2022/05/22 05:20:14;;;;;;;13.00;6.68;;;12.00;99.90;;;;;;4940138;28;38423;-74
2022/05/22 05:22:40;;;;;;;15.57;6.30;;;12.20;99.90;;;;;;4955646;28;37958;-75
2022/05/22 05:25:07;;;;;;;16.05;7.22;;;12.30;99.90;;;;;;4925647;28;38601;-75
2022/05/22 05:27:33;;;;;;;14.32;6.15;;;12.60;99.90;;;;;;4938597;28;36482;-74
2022/05/22 05:29:59;;;;;;;16.65;6.35;;;12.80;99.90;;;;;;4936003;28;39160;-75
2022/05/22 05:32:25;;;;;;;15.07;7.22;;;13.20;99.90;;;;;;4942961;28;39485;-76
2022/05/22 05:35:05;;;;;;;16.92;6.97;;;13.40;99.90;;;;;;4943649;28;38496;-76
2022/05/22 05:37:31;;;;;;;14.52;7.10;;;13.80;99.90;;;;;;4942043;28;47428;-76
2022/05/22 05:39:57;;;;;;;12.50;6.05;;;14.00;99.90;;;;;;4941705;28;38855;-76
2022/05/22 05:42:24;;;;;;;13.50;6.35;;;14.00;99.90;;;;;;4940997;28;38851;-77
2022/05/22 05:44:50;;;;;;;12.35;4.88;;;14.30;99.90;;;;;;4950648;28;38785;-78
2022/05/22 05:47:17;;;;;;;15.07;6.10;;;14.40;99.90;;;;;;4951488;28;36332;-78
2022/05/22 05:49:43;;;;;;;13.18;5.00;;;14.60;99.90;;;;;;4940525;28;39734;-76
2022/05/22 05:52:09;;;;;;;9.48;5.15;;;14.80;99.90;;;;;;4956899;28;38944;-77
2022/05/22 05:54:35;;;;;;;12.98;4.88;;;15.00;99.90;;;;;;4937781;28;38614;-77
2022/05/22 05:57:01;;;;;;;10.30;4.88;;;15.10;99.90;;;;;;4945152;28;37279;-77
2022/05/22 05:59:27;;;;;;;10.43;4.70;;;15.00;99.90;;;;;;4935216;28;47159;-78
2022/05/22 06:01:53;;;;;;;12.43;4.93;;;15.10;99.90;;;;;;4952495;28;37873;-77
2022/05/22 06:04:20;;;;;;;12.05;4.82;;;15.20;99.90;;;;;;4939312;28;38856;-78
2022/05/22 06:06:46;;;;;;;10.43;4.50;;;15.50;99.90;;;;;;4946618;28;37351;-78
2022/05/22 06:09:13;;;;;;;11.10;4.50;;;15.40;99.90;;;;;;4957205;28;38408;-78
2022/05/22 06:11:39;;;;;;;9.68;4.78;;;15.30;99.90;;;;;;4946856;28;38902;-77
2022/05/22 06:14:05;;;;;;;14.85;4.30;;;15.10;99.90;;;;;;4934562;28;36855;-77
2022/05/22 06:16:31;;;;;;;10.45;4.45;;;15.20;99.90;;;;;;4954598;28;36293;-77
2022/05/22 06:18:57;;;;;;;14.55;5.10;;;15.70;99.90;;;;;;4936800;28;38380;-76
2022/05/22 06:21:24;;;;;;;10.45;4.38;;;15.60;99.90;;;;;;4967980;28;37816;-77
2022/05/22 06:23:50;;;;;;;13.40;4.72;;;15.50;99.90;;;;;;4942107;28;38703;-76
2022/05/22 06:26:18;;;;;;;13.98;4.78;;;15.50;99.90;;;;;;4944516;28;36494;-78
2022/05/22 06:28:45;;;;;;;8.10;4.00;;;15.80;99.90;;;;;;4941935;28;38866;-78
2022/05/22 06:31:11;;;;;;;12.10;5.18;;;16.00;99.90;;;;;;4941915;28;37517;-77
2022/05/22 06:33:38;;;;;;;12.32;4.72;;;16.30;99.90;;;;;;4941025;28;38636;-77
2022/05/22 06:36:09;;;;;;;15.45;5.18;;;16.30;99.90;;;;;;4956008;28;35822;-78
2022/05/22 06:41:21;;;;;;;12.43;4.88;;;15.80;99.90;;;;;;4935427;28;39691;-79
2022/05/22 06:43:49;;;;;;;11.43;3.80;;;15.80;99.90;;;;;;4951683;28;38893;-76
2022/05/22 06:46:16;;;;;;;12.98;4.50;;;16.00;99.90;;;;;;4952969;28;37256;-77
2022/05/22 06:48:42;;;;;;;12.48;4.53;;;16.40;99.90;;;;;;4937873;28;38873;-79
2022/05/22 06:51:09;;;;;;;13.20;4.28;;;16.50;99.90;;;;;;4952644;28;37661;-78
2022/05/22 06:53:35;;;;;;;11.90;4.75;;;16.50;99.90;;;;;;4954516;28;38714;-78
2022/05/22 06:56:01;;;;;;;12.02;4.72;;;16.70;99.90;;;;;;4941004;28;36432;-76
2022/05/22 06:58:27;;;;;;;11.38;4.25;;;16.90;99.90;;;;;;4937469;28;38870;-78
2022/05/22 07:00:54;;;;;;;9.95;4.40;;;17.20;99.90;;;;;;4938390;28;39007;-78
2022/05/22 07:03:20;;;;;;;13.23;5.25;;;17.40;99.90;;;;;;4947112;28;38345;-78
2022/05/22 07:05:46;;;;;;;15.70;5.10;;;17.00;99.90;;;;;;4940728;28;37213;-78
2022/05/22 07:08:12;;;;;;;11.93;4.57;;;16.70;99.90;;;;;;4952280;28;36659;-78
2022/05/22 07:13:23;;;;;;;17.63;4.78;;;17.10;99.90;;;;;;4930619;28;39220;-78
2022/05/22 07:16:04;;;;;;;10.85;4.43;;;16.70;99.90;;;;;;4936252;28;36697;-76
2022/05/22 07:18:31;;;;;;;12.30;5.18;;;17.00;99.90;;;;;;4940020;28;48439;-77
2022/05/22 07:20:57;;;;;;;10.40;5.22;;;17.40;99.90;;;;;;4956180;28;38415;-78
2022/05/22 07:23:24;;;;;;;12.07;4.45;;;17.10;99.90;;;;;;4935740;28;37321;-76
2022/05/22 07:25:51;;;;;;;11.18;4.15;;;17.30;99.90;;;;;;4940670;28;37311;-77
2022/05/22 07:28:18;;;;;;;11.52;5.00;;;17.10;99.90;;;;;;4929537;28;38186;-77
2022/05/22 07:30:44;;;;;;;15.63;5.82;;;17.00;99.90;;;;;;4935975;28;38822;-78
2022/05/22 07:33:10;;;;;;;14.63;5.20;;;17.20;99.90;;;;;;4941633;28;38768;-80
2022/05/22 07:35:37;;;;;;;10.30;4.25;;;17.20;99.90;;;;;;4940305;28;37558;-78
2022/05/22 07:38:03;;;;;;;10.35;4.65;;;17.70;99.90;;;;;;4950839;28;39185;-76
2022/05/22 07:40:30;;;;;;;12.32;4.32;;;17.70;99.90;;;;;;4952566;28;37306;-76
2022/05/22 07:42:56;;;;;;;11.40;4.65;;;18.00;99.90;;;;;;4934150;28;39056;-77
2022/05/22 07:45:24;;;;;;;8.60;4.20;;;18.40;99.90;;;;;;4924894;28;38966;-73
2022/05/22 07:47:52;;;;;;;9.32;4.00;;;19.00;99.90;;;;;;4950856;28;38833;-77
2022/05/22 07:50:20;;;;;;;11.57;4.25;;;19.00;99.90;;;;;;4935270;28;39459;-74
2022/05/22 07:52:50;;;;;;;10.38;4.20;;;19.30;99.90;;;;;;4951799;28;37641;-74
2022/05/22 07:55:18;;;;;;;11.95;4.13;;;19.70;99.90;;;;;;4943626;28;36167;-74
2022/05/22 07:57:46;;;;;;;5.88;2.95;;;19.60;99.90;;;;;;4935822;28;37474;-73
2022/05/22 08:00:15;;;;;;;8.00;2.92;;;19.30;99.90;;;;;;4952815;28;38873;-75
2022/05/22 08:02:41;;;;;;;8.38;3.60;;;19.60;99.90;;;;;;4938621;28;37537;-76
2022/05/22 08:05:09;;;;;;;8.48;3.63;;;19.60;99.90;;;;;;4946442;28;36743;-77
2022/05/22 08:07:35;;;;;;;7.53;3.60;;;19.70;99.90;;;;;;4948249;28;39484;-76
2022/05/22 08:10:03;;;;;;;6.63;3.30;;;19.90;99.90;;;;;;4959480;28;38870;-76
2022/05/22 08:12:29;;;;;;;6.78;2.90;;;19.70;99.90;;;;;;4943512;28;38884;-75
2022/05/22 08:14:55;;;;;;;5.68;2.80;;;19.60;99.90;;;;;;4952113;28;36323;-75
2022/05/22 08:17:21;;;;;;;7.50;3.30;;;19.80;99.90;;;;;;4941620;28;38245;-76
2022/05/22 08:19:51;;;;;;;12.27;3.13;;;20.10;99.90;;;;;;4943468;28;38682;-76
2022/05/22 08:22:18;;;;;;;7.15;3.05;;;19.80;99.90;;;;;;4946294;28;38374;-75
2022/05/22 08:24:44;;;;;;;8.13;3.67;;;19.50;99.90;;;;;;4961046;28;36030;-75
2022/05/22 08:27:10;;;;;;;10.15;3.55;;;19.10;99.90;;;;;;4955308;28;39368;-76
2022/05/22 08:29:36;;;;;;;7.85;2.45;;;18.60;99.90;;;;;;4956064;28;38957;-75
2022/05/22 08:32:03;;;;;;;6.40;3.05;;;19.20;99.90;;;;;;4954946;28;37073;-75
2022/05/22 08:34:29;;;;;;;7.90;2.90;;;19.50;99.90;;;;;;4955598;28;36838;-76
2022/05/22 08:36:55;;;;;;;6.43;2.65;;;19.90;99.90;;;;;;4940833;28;39474;-75
2022/05/22 08:39:21;;;;;;;9.77;3.67;;;19.80;99.90;;;;;;4940355;28;38119;-75
2022/05/22 08:41:52;;;;;;;9.02;3.15;;;19.90;99.90;;;;;;4942261;28;37824;-76
2022/05/22 08:44:29;;;;;;;7.72;2.83;;;19.90;99.90;;;;;;4935646;28;36934;-75
2022/05/22 08:47:03;;;;;;;9.05;3.05;;;20.10;99.90;;;;;;4949112;28;37747;-76
2022/05/22 08:49:42;;;;;;;7.60;3.33;;;20.20;99.90;;;;;;4935626;28;48583;-75
2022/05/22 08:52:13;;;;;;;8.63;3.42;;;19.70;99.90;;;;;;4954521;28;38820;-76
2022/05/22 08:54:46;;;;;;;5.90;2.60;;;19.40;99.90;;;;;;4944748;28;35969;-77
2022/05/22 09:00:26;;;;;;;9.32;3.10;;;20.00;99.90;;;;;;4943267;28;39575;-76
2022/05/22 09:03:00;;;;;;;9.82;2.90;;;19.50;99.90;;;;;;4937505;28;37215;-76
2022/05/22 09:05:29;;;;;;;8.80;2.90;;;19.70;99.90;;;;;;4953136;28;38125;-76
2022/05/22 09:08:09;;;;;;;7.85;3.20;;;20.20;99.90;;;;;;4945535;28;39389;-76
2022/05/22 09:11:05;;;;;;;8.02;2.97;;;20.50;99.90;;;;;;4943257;28;47351;-73
2022/05/22 09:13:33;;;;;;;10.52;2.97;;;20.50;99.90;;;;;;4929682;28;49219;-74
2022/05/22 09:16:23;;;;;;;6.22;3.33;;;20.60;99.90;;;;;;4957915;28;36421;-75
2022/05/22 09:19:15;;;;;;;6.43;2.90;;;20.80;99.90;;;;;;4956957;28;47113;-76
2022/05/22 09:21:51;;;;;;;9.07;3.40;;;21.00;99.90;;;;;;4934835;28;47864;-77
2022/05/22 09:24:36;;;;;;;9.65;3.20;;;21.30;99.90;;;;;;4964945;28;37132;-77
2022/05/22 09:27:20;;;;;;;8.70;2.85;;;20.90;99.90;;;;;;4943210;28;37332;-75
2022/05/22 09:29:51;;;;;;;6.53;2.45;;;21.50;99.90;;;;;;4941538;28;38532;-79
2022/05/22 09:32:51;;;;;;;5.97;2.50;;;21.70;99.90;;;;;;4939106;28;38607;-76
2022/05/22 09:35:36;;;;;;;7.25;2.65;;;21.80;99.90;;;;;;4942361;28;38568;-76
2022/05/22 09:38:29;;;;;;;5.97;2.60;;;22.10;99.90;;;;;;4958113;28;36587;-74
2022/05/22 09:41:17;;;;;;;7.85;3.70;;;22.00;99.90;;;;;;4938173;28;44475;-75
2022/05/22 09:44:12;;;;;;;8.48;3.17;;;22.10;99.90;;;;;;4954531;28;47388;-73
2022/05/22 09:47:18;;;;;;;11.30;4.40;;;21.90;99.90;;;;;;4944418;28;48889;-73
2022/05/22 09:49:56;;;;;;;7.78;3.67;;;21.70;99.90;;;;;;4938959;28;49548;-72
2022/05/22 09:52:29;;;;;;;10.63;4.22;;;21.80;99.90;;;;;;4958819;28;37484;-73
2022/05/22 09:55:24;;;;;;;6.47;3.42;;;21.80;99.90;;;;;;4959642;28;39073;-74
2022/05/22 09:57:58;;;;;;;7.80;4.00;;;22.00;99.90;;;;;;4935133;28;48508;-75
2022/05/22 10:00:42;;;;;;;7.78;3.40;;;21.70;99.90;;;;;;4926633;28;35209;-75
2022/05/22 10:03:24;;;;;;;8.57;3.95;;;22.00;99.90;;;;;;4942661;28;38649;-73
2022/05/22 10:06:11;;;;;;;5.82;2.97;;;22.20;99.90;;;;;;4941282;28;39809;-72
2022/05/22 10:08:37;;;;;;;7.13;3.40;;;22.00;99.90;;;;;;4939302;28;48495;-74
2022/05/22 10:11:15;;;;;;;11.13;3.63;;;22.20;99.90;;;;;;4940191;28;35930;-75
2022/05/22 10:13:46;;;;;;;5.97;3.10;;;21.70;99.90;;;;;;4938912;28;36193;-73
2022/05/22 10:16:47;;;;;;;12.60;3.70;;;21.40;99.90;;;;;;4942488;28;37605;-72
2022/05/22 10:19:39;;;;;;;6.82;3.20;;;21.60;99.90;;;;;;4957331;28;37397;-73
2022/05/22 10:22:30;;;;;;;5.80;2.97;;;21.60;99.90;;;;;;4945427;28;37303;-73
2022/05/22 10:25:15;;;;;;;11.43;3.60;;;21.60;99.90;;;;;;4961481;28;37572;-73
2022/05/22 10:27:54;;;;;;;7.47;3.17;;;21.10;99.90;;;;;;4944351;28;48694;-73
2022/05/22 10:30:45;;;;;;;7.53;3.38;;;20.90;99.90;;;;;;4938101;28;38217;-73
2022/05/22 10:33:28;;;;;;;7.70;3.60;;;21.00;99.90;;;;;;4942945;28;37217;-73
2022/05/22 10:35:57;;;;;;;8.20;3.65;;;21.70;99.90;;;;;;4945778;28;38998;-73
2022/05/22 10:38:31;;;;;;;6.95;3.75;;;21.90;99.90;;;;;;4943755;28;38904;-73
2022/05/22 10:43:51;;;;;;;8.27;3.45;;;21.50;99.90;;;;;;4936488;28;49759;-74
2022/05/22 10:46:17;;;;;;;9.43;2.90;;;21.40;99.90;;;;;;4958442;28;38046;-74
2022/05/22 10:48:55;;;;;;;5.28;2.58;;;21.90;99.90;;;;;;4937245;28;37868;-74
2022/05/22 10:51:27;;;;;;;5.70;2.38;;;22.70;99.90;;;;;;4956391;28;38801;-74
2022/05/22 10:53:56;;;;;;;4.38;2.03;;;22.80;99.90;;;;;;4972089;28;36296;-72
2022/05/22 10:56:29;;;;;;;7.90;2.63;;;22.30;99.90;;;;;;4946682;28;36883;-74
2022/05/22 10:59:07;;;;;;;6.53;2.47;;;22.00;99.90;;;;;;4946079;28;38979;-73
2022/05/22 11:01:36;;;;;;;5.82;2.10;;;22.20;99.90;;;;;;4945932;28;48483;-74
2022/05/22 11:04:09;;;;;;;7.72;3.13;;;22.40;99.90;;;;;;4936666;28;38099;-73
2022/05/22 11:06:52;;;;;;;6.32;2.10;;;22.00;99.90;;;;;;4933141;28;37867;-74
2022/05/22 11:09:24;;;;;;;5.53;2.20;;;21.80;99.90;;;;;;4937804;28;38818;-73
2022/05/22 11:11:51;;;;;;;5.78;2.08;;;21.60;99.90;;;;;;4957946;28;38453;-74
2022/05/22 11:14:21;;;;;;;4.78;2.33;;;21.60;99.90;;;;;;4943209;28;38445;-73
2022/05/22 11:16:47;;;;;;;4.22;1.50;;;21.60;99.90;;;;;;4944796;28;38939;-73
2022/05/22 11:19:26;;;;;;;4.63;1.73;;;21.40;99.90;;;;;;4954722;28;38864;-70
2022/05/22 11:22:17;;;;;;;6.45;2.30;;;21.10;99.90;;;;;;4946359;28;38568;-72
2022/05/22 11:24:58;;;;;;;4.97;2.20;;;22.00;99.90;;;;;;4944773;28;49595;-74
2022/05/22 11:28:09;;;;;;;9.57;3.10;;;22.90;99.90;;;;;;4940583;28;38587;-74
2022/05/22 11:31:01;;;;;;;6.43;2.78;;;23.00;99.90;;;;;;4940200;28;48730;-73
2022/05/22 11:33:55;;;;;;;9.02;3.60;;;22.70;99.90;;;;;;4941065;28;48798;-73
2022/05/22 11:36:31;;;;;;;7.40;3.00;;;22.30;99.90;;;;;;4943693;28;37917;-75
2022/05/22 11:39:38;;;;;;;7.53;2.83;;;21.80;99.90;;;;;;4940723;28;37109;-73
2022/05/22 11:42:17;;;;;;;7.57;3.20;;;21.70;99.90;;;;;;4954695;28;47095;-72
2022/05/22 11:44:50;;;;;;;9.32;3.10;;;22.10;99.90;;;;;;4938704;28;37675;-72
2022/05/22 11:47:31;;;;;;;8.30;3.50;;;22.30;99.90;;;;;;4962360;28;35956;-73
2022/05/22 11:49:57;;;;;;;6.38;3.47;;;22.30;99.90;;;;;;4941884;28;38482;-74
2022/05/22 11:52:53;;;;;;;6.38;2.53;;;22.90;99.90;;;;;;4942929;28;39610;-72
2022/05/22 11:55:19;;;;;;;8.15;4.13;;;23.10;99.90;;;;;;4961431;28;37559;-73
2022/05/22 11:57:57;;;;;;;6.82;3.70;;;22.70;99.90;;;;;;4964918;28;36603;-74
2022/05/22 12:00:32;;;;;;;8.93;4.05;;;22.30;99.90;;;;;;4952111;28;39236;-75
2022/05/22 12:03:36;;;;;;;9.63;4.75;;;23.10;99.90;;;;;;4953178;28;38022;-75
2022/05/22 12:06:15;;;;;;;8.13;3.72;;;23.00;99.90;;;;;;4942744;28;48518;-75
2022/05/22 12:08:56;;;;;;;10.45;3.85;;;23.00;99.90;;;;;;4944001;28;37193;-75
2022/05/22 12:11:36;;;;;;;7.07;3.90;;;22.70;99.90;;;;;;4959891;28;37667;-75
2022/05/22 12:14:27;;;;;;;9.70;3.90;;;22.70;99.90;;;;;;4958173;28;39397;-74
2022/05/22 12:17:02;;;;;;;9.38;4.32;;;22.20;99.90;;;;;;4944221;28;38661;-75
2022/05/22 12:20:01;;;;;;;10.60;3.65;;;22.00;99.90;;;;;;4944322;28;47106;-74
2022/05/22 12:25:22;;;;;;;8.13;4.70;;;22.50;99.90;;;;;;4940937;28;39384;-75
2022/05/22 12:27:49;;;;;;;10.75;4.43;;;22.50;99.90;;;;;;4940133;28;38232;-74
2022/05/22 12:30:36;;;;;;;9.90;4.75;;;22.60;99.90;;;;;;4937698;28;37473;-75
2022/05/22 12:33:11;;;;;;;9.52;4.55;;;23.00;99.90;;;;;;4954546;28;37764;-75
2022/05/22 12:35:40;;;;;;;12.25;5.40;;;23.30;99.90;;;;;;4935719;28;38085;-74
2022/05/22 12:38:09;;;;;;;10.98;4.65;;;23.20;99.90;;;;;;4948853;28;38462;-74
2022/05/22 12:40:38;;;;;;;10.45;5.05;;;22.70;99.90;;;;;;4943153;28;37131;-74
2022/05/22 12:43:08;;;;;;;9.60;4.65;;;23.20;99.90;;;;;;4959542;28;38315;-74
2022/05/22 12:45:36;;;;;;;9.70;4.00;;;23.10;99.90;;;;;;4940291;28;40418;-74
2022/05/22 12:48:12;;;;;;;10.82;4.60;;;22.90;99.90;;;;;;4951023;28;37184;-74
2022/05/22 12:50:48;;;;;;;8.98;4.22;;;23.00;99.90;;;;;;4940129;28;48874;-75
2022/05/22 12:53:31;;;;;;;6.70;4.03;;;23.00;99.90;;;;;;4940148;28;38909;-74
2022/05/22 12:56:16;;;;;;;5.80;3.38;;;22.80;99.90;;;;;;4944631;28;39211;-75
2022/05/22 12:58:54;;;;;;;7.32;3.70;;;22.80;99.90;;;;;;4938246;28;48843;-74
2022/05/22 13:01:28;;;;;;;11.82;4.57;;;23.30;99.90;;;;;;4945864;28;37706;-76
2022/05/22 13:04:06;;;;;;;12.18;3.90;;;23.00;99.90;;;;;;4945094;28;39929;-74
2022/05/22 13:06:44;;;;;;;8.15;4.00;;;22.80;99.90;;;;;;4921409;28;47679;-75
2022/05/22 13:09:30;;;;;;;8.60;4.13;;;23.00;99.90;;;;;;4941332;28;38348;-74
2022/05/22 13:12:16;;;;;;;8.18;3.90;;;23.30;99.90;;;;;;4947276;28;37183;-73
2022/05/22 13:14:54;;;;;;;7.93;4.55;;;22.90;99.90;;;;;;4945420;28;47026;-74
2022/05/22 13:17:50;;;;;;;11.20;5.38;;;22.50;99.90;;;;;;4942053;28;39361;-75
2022/05/22 13:20:43;;;;;;;9.68;4.03;;;22.70;99.90;;;;;;4960907;28;39469;-75